Other Surface Observations
Issued by NWS Great Falls, MT

Home | Current Version | Previous Version | Text Only | Print | Product List | Glossary On
Versions: 1 2 3 4 5 6 7 8 9 10 11 12 13 14 15 16 17 18 19 20 21 22 23 24 25 26 27 28 29 30 31 32 33 34 35 36 37 38 39 40 41 42 43 44 45 46 47 48 49 50
426
SXUS55 KTFX 272044
OSOTFX
AREA AWOS OBSERVATIONS
NATIONAL WEATHER SERVICE GREAT FALLS MT
0244 PM MDT FRI MAY 27 2016

METAR KPWD 272045Z AUTO 05013G17KT 10SM 19/08 A2985 RMK PLENTYWOOD
METAR KPO1 272045Z AUTO 24004KT 10SM 19/09 A2984 RMK POPLAR
METAR K1S3 272045Z AUTO 07004KT 10SM 18/09 A2983 RMK FORSYTH
METAR KS71 272045Z AUTO 08006KT 10SM 20/10 A2982 RMK CHINOOK
METAR K38S 272045Z AUTO 27006KT 8SM 10/06 A2995 RMK DEER LODGE
METAR K3U3 272045Z AUTO 00000KT 08/05 A2995 RMK ANACONDA
METAR K6S5 272045Z AUTO 27013KT 10SM 13/02 A2993 RMK HAMILTON
METAR KS59 272045Z AUTO 20006KT 10SM 14/02 A2996 RMK LIBBY
METAR K88M 272045Z AUTO 25006KT 10SM 15/M01 A2991 RMK EUREKA



USA.gov is the U.S. government's official web portal to all federal, state and local government web resources and services.